Time;durP1;ratioP1;P1;durP2;ratioP2;P2;SDS_P1;SDS_P2;PMS_P1;PMS_P2;Temp;Humidity;BMP_temperature;BMP_pressure;BME280_temperature;BME280_humidity;BME280_pressure;Samples;Min_cycle;Max_cycle;Signal;HPM_P1;HPM_P2
2023/06/07 00:00:45;;;;;;;2.40;2.20;;;;;;;;;;5054581;28;20382;-80
2023/06/07 00:03:13;;;;;;;2.67;2.10;;;;;;;;;;5054293;28;20381;-81
2023/06/07 00:05:39;;;;;;;1.90;1.80;;;;;;;;;;5054215;28;20401;-81
2023/06/07 00:08:07;;;;;;;2.50;2.30;;;;;;;;;;5054009;28;20470;-80
2023/06/07 00:10:33;;;;;;;2.17;1.98;;;;;;;;;;5053747;28;20378;-80
2023/06/07 00:12:59;;;;;;;2.63;2.10;;;;;;;;;;5054349;28;20377;-79
2023/06/07 00:15:26;;;;;;;2.17;2.00;;;;;;;;;;5053938;28;20500;-80
2023/06/07 00:17:52;;;;;;;2.38;2.17;;;;;;;;;;5053859;28;20497;-79
2023/06/07 00:20:18;;;;;;;3.67;2.17;;;;;;;;;;5053608;28;20389;-79
2023/06/07 00:22:47;;;;;;;2.40;2.20;;;;;;;;;;5053769;28;20862;-80
2023/06/07 00:25:13;;;;;;;2.43;2.27;;;;;;;;;;5053777;28;20463;-80
2023/06/07 00:27:39;;;;;;;2.60;2.20;;;;;;;;;;5052393;28;20386;-79
2023/06/07 00:30:06;;;;;;;2.85;2.20;;;;;;;;;;5053122;28;20890;-80
2023/06/07 00:32:32;;;;;;;3.05;2.30;;;;;;;;;;5053590;28;20780;-80
2023/06/07 00:34:58;;;;;;;2.10;2.00;;;;;;;;;;5053579;28;20838;-80
2023/06/07 00:37:24;;;;;;;2.77;2.03;;;;;;;;;;5053648;28;20382;-80
2023/06/07 00:39:50;;;;;;;2.10;2.00;;;;;;;;;;5053653;28;20381;-80
2023/06/07 00:42:16;;;;;;;2.00;1.90;;;;;;;;;;5053860;28;20381;-80
2023/06/07 00:44:42;;;;;;;3.03;2.28;;;;;;;;;;5053931;28;20401;-80
2023/06/07 00:47:09;;;;;;;2.10;1.90;;;;;;;;;;5053345;28;20442;-81
2023/06/07 00:49:35;;;;;;;2.10;2.00;;;;;;;;;;5053188;28;20370;-80
2023/06/07 00:52:01;;;;;;;2.10;1.90;;;;;;;;;;5053252;28;20467;-80
2023/06/07 00:54:28;;;;;;;2.28;2.08;;;;;;;;;;5052960;28;20378;-81
2023/06/07 00:56:54;;;;;;;2.50;2.00;;;;;;;;;;5052408;28;20894;-80
2023/06/07 00:59:21;;;;;;;2.10;2.00;;;;;;;;;;5052907;28;20509;-80
2023/06/07 01:01:55;;;;;;;3.40;2.22;;;;;;;;;;5053280;28;20389;-81
2023/06/07 01:04:21;;;;;;;2.70;2.10;;;;;;;;;;5053035;28;20408;-79
2023/06/07 01:06:49;;;;;;;2.22;2.13;;;;;;;;;;5051619;28;20793;-80
2023/06/07 01:09:16;;;;;;;2.40;2.20;;;;;;;;;;5052701;28;20817;-80
2023/06/07 01:11:42;;;;;;;2.03;1.92;;;;;;;;;;5052997;28;20456;-80
2023/06/07 01:14:10;;;;;;;2.10;1.90;;;;;;;;;;5052031;28;20413;-80
2023/06/07 01:16:36;;;;;;;2.08;1.95;;;;;;;;;;5052465;28;20381;-80
2023/06/07 01:19:04;;;;;;;2.35;2.10;;;;;;;;;;5052713;28;20388;-79
2023/06/07 01:21:32;;;;;;;2.25;2.05;;;;;;;;;;5052822;28;20435;-79
2023/06/07 01:23:59;;;;;;;2.50;2.30;;;;;;;;;;5052721;28;20879;-79
2023/06/07 01:26:27;;;;;;;2.38;2.17;;;;;;;;;;5052502;28;20404;-80
2023/06/07 01:28:54;;;;;;;2.30;2.20;;;;;;;;;;5052319;28;20382;-80
2023/06/07 01:31:21;;;;;;;2.10;2.00;;;;;;;;;;5052721;28;20530;-79
2023/06/07 01:33:48;;;;;;;3.35;2.25;;;;;;;;;;5052324;28;20381;-79
2023/06/07 01:36:14;;;;;;;2.60;2.40;;;;;;;;;;5052537;28;20377;-78
2023/06/07 01:38:41;;;;;;;2.47;2.28;;;;;;;;;;5052014;28;20387;-79
2023/06/07 01:41:08;;;;;;;2.35;2.15;;;;;;;;;;5052012;28;20386;-78
2023/06/07 01:43:34;;;;;;;1.90;1.80;;;;;;;;;;5052080;28;20381;-78
2023/06/07 01:46:00;;;;;;;2.13;1.95;;;;;;;;;;5052070;28;20464;-79
2023/06/07 01:48:26;;;;;;;3.00;1.95;;;;;;;;;;5051742;28;20381;-79
2023/06/07 01:50:53;;;;;;;2.20;2.10;;;;;;;;;;5052288;28;20921;-80
2023/06/07 01:53:19;;;;;;;2.72;2.00;;;;;;;;;;5052364;28;20377;-79
2023/06/07 01:55:45;;;;;;;2.33;2.13;;;;;;;;;;5052439;28;20389;-79
2023/06/07 01:58:20;;;;;;;1.90;1.80;;;;;;;;;;5052105;28;20409;-80
2023/06/07 02:00:47;;;;;;;2.90;2.00;;;;;;;;;;5052056;28;20552;-80
2023/06/07 02:03:13;;;;;;;2.50;2.30;;;;;;;;;;5052517;28;20378;-79
2023/06/07 02:05:41;;;;;;;1.98;1.88;;;;;;;;;;5052227;28;20409;-78
2023/06/07 02:08:09;;;;;;;2.05;1.85;;;;;;;;;;5051584;28;20392;-79
2023/06/07 02:10:36;;;;;;;2.17;1.75;;;;;;;;;;5052607;28;20378;-79
2023/06/07 02:13:03;;;;;;;1.73;1.55;;;;;;;;;;5051970;28;20879;-81
2023/06/07 02:15:29;;;;;;;2.30;1.90;;;;;;;;;;5043716;28;20424;-79
2023/06/07 02:17:58;;;;;;;2.20;2.00;;;;;;;;;;5050768;28;21123;-79
2023/06/07 02:20:28;;;;;;;2.15;2.03;;;;;;;;;;5051682;28;20853;-79
2023/06/07 02:22:56;;;;;;;3.00;1.90;;;;;;;;;;5051949;28;20393;-79
2023/06/07 02:25:22;;;;;;;2.00;1.90;;;;;;;;;;5051418;28;20397;-79
2023/06/07 02:27:48;;;;;;;2.20;1.98;;;;;;;;;;5046474;28;20972;-79
2023/06/07 02:30:14;;;;;;;3.47;2.00;;;;;;;;;;5050525;28;20732;-80
2023/06/07 02:32:40;;;;;;;2.35;1.90;;;;;;;;;;5051894;28;20473;-80
2023/06/07 02:35:07;;;;;;;2.13;2.00;;;;;;;;;;5051856;28;20386;-80
2023/06/07 02:37:33;;;;;;;2.63;2.10;;;;;;;;;;5052014;28;20378;-80
2023/06/07 02:39:59;;;;;;;1.92;1.83;;;;;;;;;;5052219;28;20439;-80
2023/06/07 02:42:26;;;;;;;2.30;2.10;;;;;;;;;;5052263;28;20439;-79
2023/06/07 02:44:52;;;;;;;2.10;2.00;;;;;;;;;;5051538;28;20405;-80
2023/06/07 02:47:18;;;;;;;2.25;2.05;;;;;;;;;;5052571;28;20453;-79
2023/06/07 02:49:44;;;;;;;2.10;1.92;;;;;;;;;;5052041;28;20469;-80
2023/06/07 02:52:10;;;;;;;1.90;1.80;;;;;;;;;;5051995;28;20377;-80
2023/06/07 02:54:39;;;;;;;2.33;2.10;;;;;;;;;;5051541;28;20469;-81
2023/06/07 02:57:06;;;;;;;1.98;1.88;;;;;;;;;;5052533;28;20445;-80
2023/06/07 02:59:32;;;;;;;2.17;2.08;;;;;;;;;;5050669;28;20390;-80
2023/06/07 03:01:58;;;;;;;2.40;2.20;;;;;;;;;;5051716;28;20396;-80
2023/06/07 03:04:26;;;;;;;2.17;2.08;;;;;;;;;;5051428;28;20417;-80
2023/06/07 03:06:53;;;;;;;1.98;1.88;;;;;;;;;;5050796;28;20437;-80
2023/06/07 03:09:19;;;;;;;1.90;1.80;;;;;;;;;;5050768;28;20733;-80
2023/06/07 03:11:45;;;;;;;2.42;2.22;;;;;;;;;;5050175;28;20862;-80
2023/06/07 03:14:11;;;;;;;1.90;1.80;;;;;;;;;;5051106;28;20385;-80
2023/06/07 03:16:37;;;;;;;2.00;1.90;;;;;;;;;;5090297;22;20444;-79
2023/06/07 03:19:03;;;;;;;3.60;2.10;;;;;;;;;;5063253;28;20383;-80
2023/06/07 03:21:29;;;;;;;2.40;2.20;;;;;;;;;;5070390;28;20391;-80
2023/06/07 03:23:55;;;;;;;2.30;2.10;;;;;;;;;;5070510;28;20434;-80
2023/06/07 03:26:21;;;;;;;2.22;2.05;;;;;;;;;;5070379;28;20405;-80
2023/06/07 03:28:48;;;;;;;2.42;2.22;;;;;;;;;;5056045;28;20372;-81
2023/06/07 03:31:14;;;;;;;2.00;1.90;;;;;;;;;;5070608;28;20368;-80
2023/06/07 03:33:40;;;;;;;2.30;2.10;;;;;;;;;;5069074;28;20443;-80
2023/06/07 03:36:07;;;;;;;2.33;2.20;;;;;;;;;;5069208;28;20429;-80
2023/06/07 03:38:33;;;;;;;2.20;2.10;;;;;;;;;;5071449;28;20376;-81
2023/06/07 03:40:59;;;;;;;2.50;2.10;;;;;;;;;;5074065;28;20383;-81
2023/06/07 03:43:25;;;;;;;2.30;2.10;;;;;;;;;;5073991;28;20841;-79
2023/06/07 03:45:51;;;;;;;2.40;1.92;;;;;;;;;;5073686;28;20550;-78
2023/06/07 03:48:17;;;;;;;3.20;2.05;;;;;;;;;;5073546;28;20376;-80
2023/06/07 03:50:43;;;;;;;2.10;2.00;;;;;;;;;;5068818;28;20920;-80
2023/06/07 03:53:10;;;;;;;2.58;1.98;;;;;;;;;;5063263;28;20376;-80
2023/06/07 03:55:41;;;;;;;2.25;2.05;;;;;;;;;;5073534;28;20379;-81
2023/06/07 03:58:08;;;;;;;1.90;1.80;;;;;;;;;;5073370;28;20386;-81
2023/06/07 04:00:34;;;;;;;2.23;2.13;;;;;;;;;;5073292;28;20471;-79
2023/06/07 04:03:00;;;;;;;2.20;2.00;;;;;;;;;;5068270;28;20477;-81
2023/06/07 04:05:28;;;;;;;1.98;1.88;;;;;;;;;;5053223;28;20831;-80
2023/06/07 04:07:59;;;;;;;2.30;2.10;;;;;;;;;;5044598;28;20874;-81
2023/06/07 04:10:25;;;;;;;2.30;2.10;;;;;;;;;;5037869;28;20371;-79
2023/06/07 04:12:51;;;;;;;2.50;2.00;;;;;;;;;;5046497;28;20474;-81
2023/06/07 04:15:17;;;;;;;2.20;2.10;;;;;;;;;;5052006;28;20500;-80
2023/06/07 04:17:43;;;;;;;3.00;2.65;;;;;;;;;;5051454;28;20424;-81
2023/06/07 04:20:09;;;;;;;2.40;2.20;;;;;;;;;;5050447;28;20396;-80
2023/06/07 04:22:36;;;;;;;3.42;2.28;;;;;;;;;;5049074;28;20389;-81
2023/06/07 04:25:03;;;;;;;2.80;2.60;;;;;;;;;;5051105;28;20429;-80
2023/06/07 04:27:29;;;;;;;2.70;2.25;;;;;;;;;;5038351;28;20465;-81
2023/06/07 04:29:56;;;;;;;2.35;2.20;;;;;;;;;;5034920;28;20383;-80
2023/06/07 04:32:22;;;;;;;2.35;2.15;;;;;;;;;;5051655;28;20374;-80
2023/06/07 04:34:48;;;;;;;2.50;2.30;;;;;;;;;;5052848;28;20405;-80
2023/06/07 04:37:16;;;;;;;2.45;2.20;;;;;;;;;;5052628;28;20833;-80
2023/06/07 04:39:44;;;;;;;2.10;2.00;;;;;;;;;;5051789;28;20408;-81
2023/06/07 04:42:10;;;;;;;3.78;2.35;;;;;;;;;;5040113;28;20390;-81
2023/06/07 04:44:37;;;;;;;2.40;2.15;;;;;;;;;;5032922;28;20410;-82
2023/06/07 04:47:03;;;;;;;5.28;2.40;;;;;;;;;;5038525;28;20868;-81
2023/06/07 04:49:33;;;;;;;2.30;2.10;;;;;;;;;;5040542;28;20393;-80
2023/06/07 04:52:01;;;;;;;2.40;2.20;;;;;;;;;;5042180;28;20402;-81
2023/06/07 04:54:28;;;;;;;2.60;2.30;;;;;;;;;;5045070;28;20393;-80
2023/06/07 04:56:56;;;;;;;3.00;2.10;;;;;;;;;;5047117;28;20393;-82
2023/06/07 04:59:23;;;;;;;3.47;2.40;;;;;;;;;;5050450;28;20743;-81
2023/06/07 05:01:49;;;;;;;2.30;2.20;;;;;;;;;;5051645;28;20407;-81
2023/06/07 05:04:16;;;;;;;2.97;2.15;;;;;;;;;;5034562;28;20412;-81
2023/06/07 05:06:42;;;;;;;2.40;2.20;;;;;;;;;;5033880;28;20474;-81
2023/06/07 05:09:09;;;;;;;2.30;2.10;;;;;;;;;;5032757;28;20453;-79
2023/06/07 05:11:35;;;;;;;2.22;2.03;;;;;;;;;;5039749;28;20374;-82
2023/06/07 05:14:04;;;;;;;2.22;2.03;;;;;;;;;;5045952;28;20407;-81
2023/06/07 05:16:32;;;;;;;2.40;2.20;;;;;;;;;;5044068;28;20805;-80
2023/06/07 05:18:58;;;;;;;2.72;2.10;;;;;;;;;;5039025;28;20433;-81
2023/06/07 05:21:24;;;;;;;2.30;2.10;;;;;;;;;;5034992;28;20381;-81
2023/06/07 05:23:50;;;;;;;2.60;2.40;;;;;;;;;;5042255;28;20408;-80
2023/06/07 05:26:16;;;;;;;2.97;2.67;;;;;;;;;;5035545;28;20389;-80
2023/06/07 05:28:42;;;;;;;2.40;2.20;;;;;;;;;;5049145;28;20457;-79
2023/06/07 05:31:09;;;;;;;2.90;2.70;;;;;;;;;;5045126;28;20379;-79
2023/06/07 05:33:35;;;;;;;2.63;2.43;;;;;;;;;;5048159;28;20378;-79
2023/06/07 05:36:01;;;;;;;2.55;2.30;;;;;;;;;;5051525;28;20465;-80
2023/06/07 05:38:27;;;;;;;3.00;2.50;;;;;;;;;;5051453;28;20742;-80
2023/06/07 05:40:56;;;;;;;2.45;2.25;;;;;;;;;;5033426;28;20860;-80
2023/06/07 05:43:23;;;;;;;2.70;2.50;;;;;;;;;;5043151;28;20381;-80
2023/06/07 05:45:49;;;;;;;2.95;2.75;;;;;;;;;;5049641;28;20917;-80
2023/06/07 05:48:15;;;;;;;2.75;2.50;;;;;;;;;;5049515;28;20404;-80
2023/06/07 05:50:41;;;;;;;3.47;2.50;;;;;;;;;;5065314;28;20393;-81
2023/06/07 05:53:07;;;;;;;3.22;2.92;;;;;;;;;;5049634;28;20413;-80
2023/06/07 05:55:33;;;;;;;3.10;2.63;;;;;;;;;;5049310;28;20389;-80
2023/06/07 05:58:03;;;;;;;2.90;2.60;;;;;;;;;;5047585;28;20389;-78
2023/06/07 06:00:30;;;;;;;2.83;2.63;;;;;;;;;;5044815;28;20385;-79
2023/06/07 06:02:56;;;;;;;3.20;2.90;;;;;;;;;;5051388;28;20393;-81
2023/06/07 06:05:27;;;;;;;2.60;2.40;;;;;;;;;;5045202;28;20431;-79
2023/06/07 06:07:53;;;;;;;3.10;2.90;;;;;;;;;;5048206;28;20370;-81
2023/06/07 06:10:19;;;;;;;3.55;3.25;;;;;;;;;;5049519;28;20874;-81
2023/06/07 06:12:46;;;;;;;2.88;2.58;;;;;;;;;;5049601;28;20389;-78
2023/06/07 06:15:12;;;;;;;3.60;2.80;;;;;;;;;;5041045;28;20417;-80
2023/06/07 06:17:38;;;;;;;2.90;2.70;;;;;;;;;;5049640;28;20435;-80
2023/06/07 06:20:04;;;;;;;3.22;2.92;;;;;;;;;;5049803;28;20394;-79
2023/06/07 06:22:30;;;;;;;2.67;2.47;;;;;;;;;;5039927;28;20394;-82
2023/06/07 06:24:57;;;;;;;2.97;2.58;;;;;;;;;;5049970;28;20409;-81
2023/06/07 06:27:23;;;;;;;3.45;2.63;;;;;;;;;;5042701;28;20449;-81
2023/06/07 06:29:49;;;;;;;2.90;2.70;;;;;;;;;;5043529;28;20370;-82
2023/06/07 06:32:15;;;;;;;2.95;2.65;;;;;;;;;;5050823;28;20381;-82
2023/06/07 06:34:41;;;;;;;2.90;2.70;;;;;;;;;;5050413;28;20981;-82
2023/06/07 06:37:07;;;;;;;2.78;2.53;;;;;;;;;;5036799;28;20385;-82
2023/06/07 06:39:33;;;;;;;2.42;2.30;;;;;;;;;;5050400;28;20385;-82
2023/06/07 06:41:59;;;;;;;2.90;2.60;;;;;;;;;;5050763;28;20410;-83
2023/06/07 06:44:25;;;;;;;2.50;2.30;;;;;;;;;;5043122;28;20424;-83
2023/06/07 06:46:51;;;;;;;2.70;2.50;;;;;;;;;;5049301;28;20399;-83
2023/06/07 06:49:17;;;;;;;3.47;2.47;;;;;;;;;;5049908;28;20855;-84
2023/06/07 06:51:43;;;;;;;2.53;2.33;;;;;;;;;;5050322;28;20384;-84
2023/06/07 06:54:09;;;;;;;3.60;2.70;;;;;;;;;;5049420;28;20887;-84
2023/06/07 06:56:35;;;;;;;2.75;2.40;;;;;;;;;;5050650;28;20397;-84
2023/06/07 06:59:01;;;;;;;2.58;2.38;;;;;;;;;;5050198;28;20385;-83
2023/06/07 07:01:42;;;;;;;2.45;2.25;;;;;;;;;;5050796;28;20716;-83
2023/06/07 07:04:08;;;;;;;2.60;2.45;;;;;;;;;;5050368;28;20405;-81
2023/06/07 07:06:34;;;;;;;3.90;2.30;;;;;;;;;;5052161;28;20799;-87
2023/06/07 07:09:00;;;;;;;3.00;2.35;;;;;;;;;;5049626;28;20374;-90
2023/06/07 07:11:26;;;;;;;2.75;2.55;;;;;;;;;;5051371;28;20432;-87
2023/06/07 07:13:52;;;;;;;2.45;2.25;;;;;;;;;;5069849;28;20750;-89
2023/06/07 07:16:19;;;;;;;2.80;2.55;;;;;;;;;;5057034;28;20405;-90
2023/06/07 07:18:45;;;;;;;2.67;2.45;;;;;;;;;;5051137;28;20407;-89
2023/06/07 07:21:10;;;;;;;3.00;2.70;;;;;;;;;;5052842;28;20854;-91
2023/06/07 07:23:36;;;;;;;2.42;2.30;;;;;;;;;;5056205;28;20392;-93
2023/06/07 07:26:03;;;;;;;2.58;2.38;;;;;;;;;;5056096;28;20377;-90
2023/06/07 07:28:29;;;;;;;2.40;2.20;;;;;;;;;;5054689;28;20377;-90
2023/06/07 07:30:55;;;;;;;2.27;2.07;;;;;;;;;;5075185;28;20861;-90
2023/06/07 07:33:21;;;;;;;2.40;2.20;;;;;;;;;;5073830;28;20388;-90
2023/06/07 07:35:47;;;;;;;3.88;2.13;;;;;;;;;;5073822;28;20887;-90
2023/06/07 07:38:15;;;;;;;3.72;2.22;;;;;;;;;;5074364;28;20414;-89
2023/06/07 07:40:43;;;;;;;2.83;2.20;;;;;;;;;;5056527;28;20938;-89
2023/06/07 07:43:10;;;;;;;3.03;2.63;;;;;;;;;;5064745;28;20841;-92
2023/06/07 07:45:36;;;;;;;2.40;2.20;;;;;;;;;;5074490;28;20482;-91
2023/06/07 07:48:02;;;;;;;2.85;2.65;;;;;;;;;;5072887;28;20873;-92
2023/06/07 07:50:28;;;;;;;2.92;2.30;;;;;;;;;;5074194;28;20879;-90
2023/06/07 07:52:56;;;;;;;2.30;2.05;;;;;;;;;;5074102;28;20426;-90
2023/06/07 07:55:23;;;;;;;2.85;2.20;;;;;;;;;;5074385;28;20914;-90
2023/06/07 07:57:50;;;;;;;2.33;2.13;;;;;;;;;;5074391;28;20946;-91
2023/06/07 08:00:16;;;;;;;4.22;2.00;;;;;;;;;;5074178;28;20877;-90
2023/06/07 08:02:42;;;;;;;1.92;1.73;;;;;;;;;;5073720;28;20388;-90
2023/06/07 08:05:08;;;;;;;2.30;2.10;;;;;;;;;;5062348;28;20409;-89
2023/06/07 08:07:35;;;;;;;4.60;2.00;;;;;;;;;;5053309;28;20431;-89
2023/06/07 08:10:01;;;;;;;2.58;1.95;;;;;;;;;;5062558;28;20382;-91
2023/06/07 08:12:27;;;;;;;3.88;2.08;;;;;;;;;;5072927;28;20459;-90
2023/06/07 08:14:56;;;;;;;3.83;1.90;;;;;;;;;;5066591;28;20406;-90
2023/06/07 08:17:23;;;;;;;2.50;1.80;;;;;;;;;;5060597;28;20397;-88
2023/06/07 08:19:49;;;;;;;2.60;1.70;;;;;;;;;;5073103;28;20445;-90
2023/06/07 08:22:20;;;;;;;2.33;1.60;;;;;;;;;;5064699;28;20409;-90
2023/06/07 08:24:46;;;;;;;2.13;1.60;;;;;;;;;;5070896;28;20415;-90
2023/06/07 08:27:12;;;;;;;2.78;1.70;;;;;;;;;;5068858;28;20377;-90
2023/06/07 08:29:38;;;;;;;2.88;1.83;;;;;;;;;;5069877;28;20390;-90
2023/06/07 08:32:04;;;;;;;2.92;1.90;;;;;;;;;;5071656;28;20383;-90
2023/06/07 08:34:31;;;;;;;2.10;1.90;;;;;;;;;;5073565;28;20387;-90
2023/06/07 08:36:58;;;;;;;2.30;2.10;;;;;;;;;;5073595;28;20387;-89
2023/06/07 08:39:24;;;;;;;2.13;1.90;;;;;;;;;;5071601;28;20388;-91
2023/06/07 08:41:50;;;;;;;2.55;1.90;;;;;;;;;;5072328;28;20392;-91
2023/06/07 08:44:16;;;;;;;2.28;1.88;;;;;;;;;;5072336;28;20414;-89
2023/06/07 08:46:42;;;;;;;2.65;2.00;;;;;;;;;;5055497;28;20511;-89
2023/06/07 08:49:09;;;;;;;2.13;1.80;;;;;;;;;;5062025;28;20838;-89
2023/06/07 08:51:36;;;;;;;3.83;1.92;;;;;;;;;;5063819;28;20390;-88
2023/06/07 08:54:03;;;;;;;3.10;1.90;;;;;;;;;;5073048;28;20945;-89
2023/06/07 08:56:31;;;;;;;2.35;1.88;;;;;;;;;;5073472;28;20467;-87
2023/06/07 08:58:57;;;;;;;2.67;2.00;;;;;;;;;;5072989;28;20376;-91
2023/06/07 09:01:24;;;;;;;4.20;1.80;;;;;;;;;;5071522;28;20387;-89
2023/06/07 09:03:51;;;;;;;3.20;2.15;;;;;;;;;;5072093;28;20428;-90
2023/06/07 09:06:18;;;;;;;2.50;2.30;;;;;;;;;;5071367;28;20426;-92
2023/06/07 09:08:44;;;;;;;2.20;2.00;;;;;;;;;;5072913;28;20879;-89
2023/06/07 09:11:10;;;;;;;3.55;1.60;;;;;;;;;;5072877;28;20368;-92
2023/06/07 09:13:36;;;;;;;2.05;1.83;;;;;;;;;;5068233;28;20388;-90
2023/06/07 09:16:02;;;;;;;3.10;2.10;;;;;;;;;;5055486;28;20427;-90
2023/06/07 09:18:41;;;;;;;3.28;2.08;;;;;;;;;;5072622;28;20388;-89
2023/06/07 09:21:20;;;;;;;2.50;1.88;;;;;;;;;;5072520;28;20404;-90
2023/06/07 09:23:46;;;;;;;2.70;2.10;;;;;;;;;;5071132;28;20379;-91
2023/06/07 09:26:12;;;;;;;2.60;2.10;;;;;;;;;;5072359;28;20376;-90
2023/06/07 09:28:38;;;;;;;2.25;1.70;;;;;;;;;;5056866;28;20372;-89
2023/06/07 09:31:04;;;;;;;3.60;2.20;;;;;;;;;;5062389;28;20884;-92
2023/06/07 09:33:33;;;;;;;3.60;2.38;;;;;;;;;;5067842;28;20384;-92
2023/06/07 09:36:05;;;;;;;3.42;2.10;;;;;;;;;;5071465;28;20380;-88
2023/06/07 09:38:33;;;;;;;2.03;1.83;;;;;;;;;;5071657;28;20376;-90
2023/06/07 09:40:59;;;;;;;2.55;2.00;;;;;;;;;;5065228;28;20437;-87
2023/06/07 09:43:25;;;;;;;2.78;2.28;;;;;;;;;;5065568;28;20380;-88
2023/06/07 09:45:55;;;;;;;2.70;2.33;;;;;;;;;;5071538;28;20544;-90
2023/06/07 09:48:21;;;;;;;3.23;2.30;;;;;;;;;;5071633;28;20380;-90
2023/06/07 09:50:56;;;;;;;3.78;2.20;;;;;;;;;;5072158;28;20453;-91
2023/06/07 09:53:23;;;;;;;3.90;1.93;;;;;;;;;;5070627;28;20893;-87
2023/06/07 09:55:48;;;;;;;3.00;2.03;;;;;;;;;;5071624;28;20379;-87
2023/06/07 09:58:22;;;;;;;4.95;2.25;;;;;;;;;;5070815;28;20414;-89
2023/06/07 10:00:48;;;;;;;4.40;2.10;;;;;;;;;;5071538;28;20849;-89
2023/06/07 10:03:16;;;;;;;4.23;1.97;;;;;;;;;;5071655;28;20394;-88
2023/06/07 10:05:42;;;;;;;2.58;2.00;;;;;;;;;;5071216;28;20872;-92
2023/06/07 10:08:10;;;;;;;2.60;2.08;;;;;;;;;;5070792;28;20391;-91
2023/06/07 10:10:36;;;;;;;3.88;2.30;;;;;;;;;;5064141;28;20376;-88
2023/06/07 10:13:05;;;;;;;4.20;2.10;;;;;;;;;;5071425;28;20457;-86
2023/06/07 10:15:32;;;;;;;2.17;1.92;;;;;;;;;;5054802;28;20404;-87
2023/06/07 10:18:00;;;;;;;3.67;2.13;;;;;;;;;;5071223;28;20383;-87
2023/06/07 10:20:30;;;;;;;3.00;2.77;;;;;;;;;;5071610;28;20446;-88
2023/06/07 10:23:03;;;;;;;2.60;2.40;;;;;;;;;;5071754;28;20452;-90
2023/06/07 10:25:30;;;;;;;2.50;2.30;;;;;;;;;;5058283;28;20407;-89
2023/06/07 10:28:14;;;;;;;4.53;2.45;;;;;;;;;;5051360;28;20846;-89
2023/06/07 10:30:48;;;;;;;3.70;2.30;;;;;;;;;;5051669;28;20408;-90
2023/06/07 10:33:15;;;;;;;2.40;2.20;;;;;;;;;;5052587;28;20475;-92
2023/06/07 10:35:41;;;;;;;3.90;2.33;;;;;;;;;;5055126;28;20385;-94
2023/06/07 10:38:08;;;;;;;3.00;2.22;;;;;;;;;;5053858;28;20443;-91
2023/06/07 10:40:35;;;;;;;2.42;2.22;;;;;;;;;;5056807;28;20443;-91
2023/06/07 10:43:02;;;;;;;2.47;2.28;;;;;;;;;;5051868;28;21151;-91
2023/06/07 10:45:28;;;;;;;2.70;2.50;;;;;;;;;;5067763;28;20403;-91
2023/06/07 10:47:55;;;;;;;3.27;2.33;;;;;;;;;;5056867;28;20450;-90
2023/06/07 10:50:27;;;;;;;3.53;2.40;;;;;;;;;;5062737;28;20464;-91
2023/06/07 10:53:00;;;;;;;2.67;2.30;;;;;;;;;;5056944;28;20386;-92
2023/06/07 10:55:27;;;;;;;2.38;2.20;;;;;;;;;;5053711;28;20395;-91
2023/06/07 10:57:53;;;;;;;2.47;2.28;;;;;;;;;;5057662;28;20377;-93
2023/06/07 11:00:35;;;;;;;2.85;2.40;;;;;;;;;;5057736;28;20386;-92
2023/06/07 11:03:16;;;;;;;2.55;2.35;;;;;;;;;;5052445;28;20381;-91
2023/06/07 11:06:06;;;;;;;3.95;2.40;;;;;;;;;;5055750;28;20401;-91
2023/06/07 11:08:33;;;;;;;2.72;2.20;;;;;;;;;;5053963;28;20455;-92
2023/06/07 11:11:03;;;;;;;3.83;2.10;;;;;;;;;;5069174;28;20403;-91
2023/06/07 11:13:35;;;;;;;3.05;2.25;;;;;;;;;;5053393;28;20408;-93
2023/06/07 11:16:21;;;;;;;2.33;2.13;;;;;;;;;;5044440;28;20522;-92
2023/06/07 11:18:56;;;;;;;2.50;2.30;;;;;;;;;;5061268;28;20456;-91
2023/06/07 11:21:26;;;;;;;3.37;2.77;;;;;;;;;;5067010;28;20795;-91
2023/06/07 11:24:09;;;;;;;4.80;2.30;;;;;;;;;;5071246;28;20385;-92
2023/06/07 11:26:39;;;;;;;4.45;2.08;;;;;;;;;;5048431;28;20386;-92
2023/06/07 11:29:05;;;;;;;2.42;2.20;;;;;;;;;;5067963;28;20397;-92
2023/06/07 11:31:32;;;;;;;3.03;2.65;;;;;;;;;;5068256;28;20488;-92
2023/06/07 11:33:58;;;;;;;2.60;2.40;;;;;;;;;;5056430;28;20383;-93
2023/06/07 11:36:23;;;;;;;2.60;2.40;;;;;;;;;;5039658;28;20371;-93
2023/06/07 11:38:52;;;;;;;2.60;2.40;;;;;;;;;;5058861;28;20886;-92
2023/06/07 11:41:18;;;;;;;3.20;2.80;;;;;;;;;;5076675;28;20381;-92
2023/06/07 11:43:47;;;;;;;3.25;2.30;;;;;;;;;;5055749;28;20382;-93
2023/06/07 11:46:14;;;;;;;4.15;2.50;;;;;;;;;;5057186;28;20804;-92
2023/06/07 11:48:40;;;;;;;3.60;2.78;;;;;;;;;;5051665;28;20395;-92
2023/06/07 11:51:06;;;;;;;3.05;2.75;;;;;;;;;;5058633;28;20469;-90
2023/06/07 11:53:32;;;;;;;2.88;2.65;;;;;;;;;;5056151;28;20876;-92
2023/06/07 11:58:42;;;;;;;2.70;2.50;;;;;;;;;;5072238;22;20425;-91
2023/06/07 12:01:08;;;;;;;2.80;2.60;;;;;;;;;;5055919;28;20407;-91
2023/06/07 12:03:39;;;;;;;3.17;2.85;;;;;;;;;;5040906;28;20385;-91
2023/06/07 12:06:05;;;;;;;2.90;2.60;;;;;;;;;;5037358;28;20892;-92
2023/06/07 12:08:32;;;;;;;3.03;2.80;;;;;;;;;;5038086;28;20389;-93
2023/06/07 12:11:00;;;;;;;4.18;2.65;;;;;;;;;;5051378;28;20405;-94
2023/06/07 12:13:26;;;;;;;3.10;2.80;;;;;;;;;;5050677;28;20419;-93
2023/06/07 12:15:52;;;;;;;3.15;2.80;;;;;;;;;;5047504;28;20373;-92
2023/06/07 12:18:19;;;;;;;4.32;3.10;;;;;;;;;;5046756;28;20390;-92
2023/06/07 12:20:48;;;;;;;3.20;2.90;;;;;;;;;;5038678;28;20461;-92
2023/06/07 12:23:14;;;;;;;3.63;2.88;;;;;;;;;;5030716;28;20380;-92
2023/06/07 12:25:41;;;;;;;3.45;2.70;;;;;;;;;;5036729;28;20896;-91
2023/06/07 12:28:09;;;;;;;2.80;2.60;;;;;;;;;;5035076;28;20379;-92
2023/06/07 12:30:38;;;;;;;3.28;2.95;;;;;;;;;;5053972;28;20369;-91
2023/06/07 12:33:14;;;;;;;3.05;2.75;;;;;;;;;;5043064;28;20386;-92
2023/06/07 12:35:41;;;;;;;4.20;2.55;;;;;;;;;;5017014;28;20394;-92
2023/06/07 12:38:07;;;;;;;3.25;2.80;;;;;;;;;;5029243;28;20384;-91
2023/06/07 12:40:33;;;;;;;3.70;2.50;;;;;;;;;;5031870;28;20387;-91
2023/06/07 12:42:59;;;;;;;2.90;2.70;;;;;;;;;;5024952;28;20391;-92
2023/06/07 12:45:26;;;;;;;3.45;2.78;;;;;;;;;;5035588;28;20437;-91
2023/06/07 12:47:52;;;;;;;3.80;3.00;;;;;;;;;;5045212;28;20382;-92
2023/06/07 12:50:18;;;;;;;4.03;2.95;;;;;;;;;;5033394;28;20387;-92
2023/06/07 12:52:44;;;;;;;3.30;3.00;;;;;;;;;;5033651;28;20878;-91
2023/06/07 12:55:10;;;;;;;3.33;2.80;;;;;;;;;;5033462;28;20418;-93
2023/06/07 12:57:36;;;;;;;4.22;3.08;;;;;;;;;;5033128;28;20406;-93
2023/06/07 13:00:02;;;;;;;3.55;3.28;;;;;;;;;;5016039;28;20388;-91
2023/06/07 13:02:29;;;;;;;3.10;2.90;;;;;;;;;;5036016;28;20485;-93
2023/06/07 13:04:55;;;;;;;3.38;3.08;;;;;;;;;;5047393;28;20413;-89
2023/06/07 13:07:21;;;;;;;4.93;3.17;;;;;;;;;;5034876;28;20394;-88
2023/06/07 13:09:48;;;;;;;3.25;2.78;;;;;;;;;;5023935;28;20379;-90
2023/06/07 13:12:17;;;;;;;3.17;2.88;;;;;;;;;;5046836;28;20484;-90
2023/06/07 13:14:43;;;;;;;3.67;2.90;;;;;;;;;;5033692;28;20468;-90
2023/06/07 13:17:10;;;;;;;3.30;3.00;;;;;;;;;;5026630;28;20379;-88
2023/06/07 13:19:37;;;;;;;4.00;3.03;;;;;;;;;;5043095;28;20387;-90
2023/06/07 13:22:03;;;;;;;4.13;3.07;;;;;;;;;;5048985;28;20374;-88
2023/06/07 13:24:29;;;;;;;4.88;2.80;;;;;;;;;;5046979;28;20550;-88
2023/06/07 13:26:56;;;;;;;4.85;3.38;;;;;;;;;;5046073;28;20464;-88
2023/06/07 13:29:22;;;;;;;3.50;3.30;;;;;;;;;;5042341;28;20383;-89
2023/06/07 13:31:48;;;;;;;3.28;2.97;;;;;;;;;;5033417;28;20883;-88
2023/06/07 13:34:15;;;;;;;3.50;3.20;;;;;;;;;;5052060;28;20531;-91
2023/06/07 13:39:11;;;;;;;3.92;3.20;;;;;;;;;;5055288;28;20447;-88
2023/06/07 13:41:40;;;;;;;3.83;3.45;;;;;;;;;;5071577;28;20845;-88
2023/06/07 13:44:07;;;;;;;3.20;2.90;;;;;;;;;;5070351;28;20390;-88
2023/06/07 13:46:33;;;;;;;3.13;2.92;;;;;;;;;;5067561;28;20393;-88
2023/06/07 13:48:59;;;;;;;4.80;3.20;;;;;;;;;;5070920;28;20387;-88
2023/06/07 13:51:25;;;;;;;4.05;3.53;;;;;;;;;;5071716;28;20411;-87
2023/06/07 13:53:51;;;;;;;5.83;4.03;;;;;;;;;;5071123;28;20376;-88
2023/06/07 13:56:18;;;;;;;3.38;3.08;;;;;;;;;;5071463;28;20422;-88
2023/06/07 13:58:44;;;;;;;3.10;2.80;;;;;;;;;;5071038;28;20950;-88
2023/06/07 14:01:11;;;;;;;4.53;3.45;;;;;;;;;;5070734;28;20467;-87
2023/06/07 14:03:38;;;;;;;4.05;3.22;;;;;;;;;;5070470;28;20407;-88
2023/06/07 14:06:04;;;;;;;3.10;2.90;;;;;;;;;;5055271;28;20415;-89
2023/06/07 14:08:31;;;;;;;3.40;2.92;;;;;;;;;;5070885;28;20372;-88
2023/06/07 14:10:57;;;;;;;3.23;2.93;;;;;;;;;;5070767;28;20499;-88
2023/06/07 14:13:23;;;;;;;4.80;3.30;;;;;;;;;;5063886;28;20393;-88
2023/06/07 14:15:49;;;;;;;4.45;4.05;;;;;;;;;;5065418;28;20372;-89
2023/06/07 14:18:15;;;;;;;3.50;3.20;;;;;;;;;;5070819;28;20368;-88
2023/06/07 14:20:41;;;;;;;3.30;3.10;;;;;;;;;;5071158;28;20391;-88
2023/06/07 14:23:08;;;;;;;3.13;2.83;;;;;;;;;;5070573;28;20387;-87
2023/06/07 14:25:34;;;;;;;3.40;3.00;;;;;;;;;;5071055;28;20410;-88
2023/06/07 14:28:00;;;;;;;3.25;2.95;;;;;;;;;;5070600;28;20407;-88
2023/06/07 14:30:26;;;;;;;3.28;2.97;;;;;;;;;;5057272;28;20380;-84
2023/06/07 14:32:52;;;;;;;3.15;2.85;;;;;;;;;;5059701;28;20385;-86
2023/06/07 14:35:19;;;;;;;3.00;2.80;;;;;;;;;;5053726;28;20383;-87
2023/06/07 14:37:45;;;;;;;4.07;3.17;;;;;;;;;;5051938;28;20402;-87
2023/06/07 14:40:11;;;;;;;3.15;2.95;;;;;;;;;;5052994;28;20381;-87
2023/06/07 14:42:37;;;;;;;3.20;2.90;;;;;;;;;;5050217;28;20388;-91
2023/06/07 14:45:04;;;;;;;3.50;3.20;;;;;;;;;;5052279;28;20437;-89
2023/06/07 14:47:30;;;;;;;3.05;2.83;;;;;;;;;;5052842;28;20477;-89